createdAt,value
2023-10-07T00:00:16.787Z,90.00
2023-10-07T00:02:44.254Z,90.10
2023-10-07T00:05:17.231Z,89.90
2023-10-07T00:07:45.466Z,89.80
2023-10-07T00:10:14.516Z,90.00
2023-10-07T00:12:41.938Z,90.10
2023-10-07T00:15:11.040Z,90.20
2023-10-07T00:17:44.123Z,90.40
2023-10-07T00:20:12.374Z,90.50
2023-10-07T00:22:42.104Z,90.70
2023-10-07T00:25:13.580Z,90.60
2023-10-07T00:27:41.902Z,90.80
2023-10-07T00:30:16.525Z,90.90
2023-10-07T00:32:46.772Z,90.50
2023-10-07T00:35:15.670Z,90.70
2023-10-07T00:37:45.594Z,90.90
2023-10-07T00:40:15.970Z,90.80
2023-10-07T00:42:46.446Z,91.10
2023-10-07T00:45:16.270Z,91.20
2023-10-07T00:47:47.440Z,90.70
2023-10-07T00:50:16.879Z,91.00
2023-10-07T00:52:47.225Z,90.90
2023-10-07T00:55:16.370Z,91.00
2023-10-07T00:57:49.064Z,91.00
2023-10-07T01:00:18.292Z,91.10
2023-10-07T01:02:47.061Z,91.30
2023-10-07T01:05:14.864Z,91.40
2023-10-07T01:07:42.394Z,91.60
2023-10-07T01:10:14.543Z,91.70
2023-10-07T01:12:44.019Z,91.90
2023-10-07T01:15:19.700Z,92.00
2023-10-07T01:17:48.848Z,91.90
2023-10-07T01:20:16.266Z,92.00
2023-10-07T01:22:45.338Z,91.80
2023-10-07T01:25:19.655Z,92.60
2023-10-07T01:27:54.680Z,92.60
2023-10-07T01:30:30.285Z,92.70
2023-10-07T01:33:03.725Z,92.70
2023-10-07T01:35:34.156Z,92.80
2023-10-07T01:38:01.973Z,93.10
2023-10-07T01:40:33.917Z,93.40
2023-10-07T01:43:04.165Z,93.40
2023-10-07T01:45:36.247Z,93.50
2023-10-07T01:48:08.876Z,93.40
2023-10-07T01:50:40.350Z,93.50
2023-10-07T01:53:09.023Z,93.50
2023-10-07T01:55:37.878Z,93.30
2023-10-07T01:58:06.163Z,93.50
2023-10-07T02:00:35.016Z,93.40
2023-10-07T02:03:04.876Z,93.60
2023-10-07T02:05:41.483Z,93.80
2023-10-07T02:08:12.682Z,93.90
2023-10-07T02:10:59.797Z,93.80
2023-10-07T02:13:29.508Z,94.20
2023-10-07T02:15:57.176Z,94.40
2023-10-07T02:18:29.387Z,93.90
2023-10-07T02:21:08.781Z,94.20
2023-10-07T02:23:39.023Z,93.70
2023-10-07T02:26:07.843Z,94.20
2023-10-07T02:28:35.765Z,94.20
2023-10-07T02:31:08.932Z,94.10
2023-10-07T02:33:38.362Z,94.50
2023-10-07T02:36:05.713Z,94.00
2023-10-07T02:38:34.508Z,94.40
2023-10-07T02:41:08.418Z,94.60
2023-10-07T02:43:36.051Z,95.20
2023-10-07T02:46:06.343Z,95.40
2023-10-07T02:48:36.753Z,95.50
2023-10-07T02:51:09.112Z,95.00
2023-10-07T02:53:37.152Z,95.80
2023-10-07T02:56:18.087Z,96.20
2023-10-07T02:58:49.048Z,96.20
2023-10-07T03:01:19.443Z,96.30
2023-10-07T03:03:48.270Z,96.40
2023-10-07T03:06:19.100Z,96.40
2023-10-07T03:08:57.835Z,96.10
2023-10-07T03:11:25.383Z,96.20
2023-10-07T03:14:07.648Z,96.80
2023-10-07T03:16:43.794Z,97.10
2023-10-07T03:19:21.869Z,97.10
2023-10-07T03:21:57.103Z,97.30
2023-10-07T03:24:26.621Z,97.40
2023-10-07T03:26:55.795Z,97.60
2023-10-07T03:29:32.410Z,97.80
2023-10-07T03:32:01.535Z,97.80
2023-10-07T03:34:29.268Z,97.70
2023-10-07T03:36:58.192Z,98.20
2023-10-07T03:39:28.395Z,98.50
2023-10-07T03:41:57.229Z,98.90
2023-10-07T03:44:26.572Z,99.20
2023-10-07T03:46:55.978Z,99.00
2023-10-07T03:49:24.640Z,99.10
2023-10-07T03:52:04.777Z,99.20
2023-10-07T03:54:32.264Z,99.40
2023-10-07T03:57:01.928Z,99.50
2023-10-07T03:59:33.599Z,99.10
2023-10-07T04:02:02.029Z,99.60
2023-10-07T04:04:29.718Z,99.50
2023-10-07T04:07:01.850Z,99.20
2023-10-07T04:09:34.712Z,99.30
2023-10-07T04:12:02.264Z,99.80
2023-10-07T04:14:29.713Z,99.90
2023-10-07T04:16:59.166Z,99.90
2023-10-07T04:19:40.418Z,99.90
2023-10-07T04:22:09.868Z,99.90
2023-10-07T04:24:40.142Z,99.90
2023-10-07T04:27:08.629Z,99.90
2023-10-07T04:29:35.839Z,99.90
2023-10-07T04:32:07.391Z,99.90
2023-10-07T04:34:36.652Z,99.90
2023-10-07T04:37:03.753Z,99.90
2023-10-07T04:39:39.005Z,99.90
2023-10-07T04:42:08.523Z,99.90
2023-10-07T04:44:37.363Z,99.90
2023-10-07T04:47:24.644Z,99.90
2023-10-07T04:49:53.540Z,99.90
2023-10-07T04:52:20.730Z,99.90
2023-10-07T04:54:49.719Z,99.90
2023-10-07T04:57:30.713Z,99.90
2023-10-07T04:59:57.949Z,99.90
2023-10-07T05:02:25.288Z,99.90
2023-10-07T05:04:52.566Z,99.90
2023-10-07T05:07:25.830Z,99.90
2023-10-07T05:09:54.219Z,99.90
2023-10-07T05:12:21.356Z,99.90
2023-10-07T05:14:49.822Z,99.90
2023-10-07T05:17:18.014Z,99.90
2023-10-07T05:19:47.562Z,99.90
2023-10-07T05:22:15.965Z,99.90
2023-10-07T05:24:47.929Z,99.90
2023-10-07T05:27:17.004Z,99.90
2023-10-07T05:29:44.911Z,99.90
2023-10-07T05:32:12.805Z,99.90
2023-10-07T05:34:40.307Z,99.90
2023-10-07T05:37:12.880Z,99.90
2023-10-07T05:39:42.823Z,99.90
2023-10-07T05:42:13.322Z,99.90
2023-10-07T05:44:41.859Z,99.90
2023-10-07T05:47:11.092Z,99.90
2023-10-07T05:49:39.326Z,99.90
2023-10-07T05:52:06.866Z,99.90
2023-10-07T05:54:35.011Z,99.90
2023-10-07T05:57:05.759Z,99.90
2023-10-07T05:59:35.458Z,99.90
2023-10-07T06:02:08.486Z,99.90
2023-10-07T06:04:36.929Z,99.90
2023-10-07T06:07:07.822Z,99.90
2023-10-07T06:09:38.120Z,99.90
2023-10-07T06:12:08.613Z,99.90
2023-10-07T06:14:37.048Z,99.90
2023-10-07T06:17:07.658Z,99.90
2023-10-07T06:19:36.457Z,99.90
2023-10-07T06:22:13.397Z,99.90
2023-10-07T06:24:41.810Z,99.90
2023-10-07T06:27:13.434Z,99.90
2023-10-07T06:29:45.103Z,99.90
2023-10-07T06:32:14.342Z,99.90
2023-10-07T06:34:42.986Z,99.90
2023-10-07T06:37:10.367Z,99.90
2023-10-07T06:39:38.312Z,99.90
2023-10-07T06:42:07.410Z,99.90
2023-10-07T06:44:39.728Z,99.90
2023-10-07T06:47:09.328Z,99.90
2023-10-07T06:49:40.586Z,99.90
2023-10-07T06:52:08.003Z,99.90
2023-10-07T06:54:35.362Z,99.90
2023-10-07T06:57:05.683Z,99.90
2023-10-07T06:59:32.828Z,99.90
2023-10-07T07:02:07.345Z,99.90
2023-10-07T07:04:36.907Z,99.90
2023-10-07T07:07:05.997Z,99.90
2023-10-07T07:09:34.777Z,99.90
2023-10-07T07:12:05.040Z,99.90
2023-10-07T07:14:32.933Z,99.90
2023-10-07T07:17:23.066Z,99.90
2023-10-07T07:20:12.147Z,99.90
2023-10-07T07:22:44.017Z,99.90
2023-10-07T07:25:14.020Z,99.90
2023-10-07T07:27:47.142Z,99.90
2023-10-07T07:30:21.422Z,99.90
2023-10-07T07:32:51.868Z,99.90
2023-10-07T07:35:23.698Z,99.90
2023-10-07T07:37:51.950Z,99.90
2023-10-07T07:40:20.768Z,99.90
2023-10-07T07:42:56.460Z,99.90
2023-10-07T07:45:27.627Z,99.90
2023-10-07T07:47:55.457Z,99.90
2023-10-07T07:50:23.250Z,99.90
2023-10-07T07:52:51.018Z,99.90
2023-10-07T07:55:18.470Z,99.90
2023-10-07T07:57:46.120Z,99.90
2023-10-07T08:00:21.770Z,99.70
2023-10-07T08:02:50.258Z,99.30
2023-10-07T08:05:18.029Z,98.60
2023-10-07T08:07:47.600Z,97.80
2023-10-07T08:10:15.285Z,97.50
2023-10-07T08:12:42.546Z,96.70
2023-10-07T08:15:11.687Z,96.00
2023-10-07T08:17:39.339Z,96.10
2023-10-07T08:20:09.394Z,95.60
2023-10-07T08:22:38.903Z,94.80
2023-10-07T08:25:09.222Z,94.50
2023-10-07T08:27:38.160Z,93.70
2023-10-07T08:30:07.940Z,93.40
2023-10-07T08:32:36.751Z,93.20
2023-10-07T08:35:16.294Z,92.70
2023-10-07T08:37:47.320Z,92.20
2023-10-07T08:40:16.767Z,91.70
2023-10-07T08:42:46.480Z,91.60
2023-10-07T08:45:16.740Z,91.10
2023-10-07T08:47:51.191Z,90.40
2023-10-07T08:50:21.828Z,89.10
2023-10-07T08:52:53.923Z,86.40
2023-10-07T08:55:21.954Z,85.70
2023-10-07T08:57:50.626Z,84.70
2023-10-07T09:00:22.489Z,82.00
2023-10-07T09:02:50.935Z,83.20
2023-10-07T09:05:21.911Z,81.60
2023-10-07T09:07:50.667Z,81.10
2023-10-07T09:10:18.833Z,79.20
2023-10-07T09:12:48.198Z,78.50
2023-10-07T09:15:21.989Z,79.70
2023-10-07T09:17:49.554Z,78.40
2023-10-07T09:20:30.287Z,77.40
2023-10-07T09:23:02.563Z,77.50
2023-10-07T09:25:32.257Z,76.10
2023-10-07T09:28:02.160Z,75.90
2023-10-07T09:30:32.390Z,75.50
2023-10-07T09:32:59.809Z,74.40
2023-10-07T09:35:27.637Z,73.60
2023-10-07T09:37:55.592Z,73.00
2023-10-07T09:40:25.142Z,73.40
2023-10-07T09:42:53.971Z,70.20
2023-10-07T09:45:29.220Z,69.80
2023-10-07T09:48:01.899Z,69.10
2023-10-07T09:50:34.686Z,68.40
2023-10-07T09:53:23.819Z,68.00
2023-10-07T09:56:01.756Z,67.80
2023-10-07T09:58:37.002Z,67.70
2023-10-07T10:01:30.709Z,67.40
2023-10-07T10:04:07.133Z,65.60
2023-10-07T10:06:45.853Z,65.00
2023-10-07T10:09:24.484Z,64.40
2023-10-07T10:11:57.231Z,63.80
2023-10-07T10:14:52.280Z,61.80
2023-10-07T10:17:23.540Z,60.80
2023-10-07T10:20:10.622Z,61.50
2023-10-07T10:22:39.278Z,61.10
2023-10-07T10:25:27.074Z,59.70
2023-10-07T10:28:00.007Z,58.50
2023-10-07T10:30:27.323Z,58.20
2023-10-07T10:32:55.995Z,57.20
2023-10-07T10:35:25.246Z,57.80
2023-10-07T10:37:55.838Z,59.50
2023-10-07T10:40:23.849Z,57.80
2023-10-07T10:42:52.227Z,57.60
2023-10-07T10:45:21.413Z,58.00
2023-10-07T10:47:52.590Z,56.80
2023-10-07T10:50:25.043Z,56.40
2023-10-07T10:52:55.421Z,57.40
2023-10-07T10:55:26.579Z,57.10
2023-10-07T10:57:54.458Z,56.60
2023-10-07T11:00:23.523Z,55.50
2023-10-07T11:02:51.925Z,54.30
2023-10-07T11:05:19.949Z,54.00
2023-10-07T11:07:50.155Z,54.30
2023-10-07T11:10:20.322Z,53.90
2023-10-07T11:12:54.022Z,55.00
2023-10-07T11:15:23.682Z,54.50
2023-10-07T11:17:54.226Z,54.80
2023-10-07T11:20:25.694Z,53.90
2023-10-07T11:22:54.749Z,54.00
2023-10-07T11:25:25.982Z,54.10
2023-10-07T11:27:55.572Z,53.60
2023-10-07T11:30:23.643Z,53.60
2023-10-07T11:32:51.154Z,54.70
2023-10-07T11:35:20.828Z,53.80
2023-10-07T11:37:51.003Z,52.50
2023-10-07T11:40:21.164Z,52.90
2023-10-07T11:42:48.464Z,54.50
2023-10-07T11:45:17.792Z,55.10
2023-10-07T11:47:46.016Z,54.20
2023-10-07T11:50:13.666Z,53.20
2023-10-07T11:52:42.366Z,53.20
2023-10-07T11:55:10.606Z,54.70
2023-10-07T11:57:39.201Z,54.70
2023-10-07T12:00:09.881Z,54.30
2023-10-07T12:02:40.366Z,54.10
2023-10-07T12:05:08.549Z,53.80
2023-10-07T12:07:37.186Z,52.30
2023-10-07T12:10:11.082Z,52.20
2023-10-07T12:12:38.722Z,53.70
2023-10-07T12:15:09.152Z,52.00
2023-10-07T12:17:36.990Z,52.70
2023-10-07T12:20:04.833Z,52.20
2023-10-07T12:22:32.160Z,50.10
2023-10-07T12:24:59.600Z,52.10
2023-10-07T12:27:27.618Z,51.60
2023-10-07T12:29:55.188Z,51.10
2023-10-07T12:32:23.268Z,51.10
2023-10-07T12:34:50.631Z,51.60
2023-10-07T12:37:18.005Z,49.60
2023-10-07T12:39:50.422Z,49.40
2023-10-07T12:42:19.764Z,49.70
2023-10-07T12:44:47.130Z,50.10
2023-10-07T12:47:14.481Z,49.80
2023-10-07T12:49:43.641Z,48.30
2023-10-07T12:52:12.245Z,50.00
2023-10-07T12:54:39.766Z,48.00
2023-10-07T12:57:08.947Z,48.30
2023-10-07T12:59:36.932Z,48.80
2023-10-07T13:02:04.874Z,49.10
2023-10-07T13:04:36.294Z,47.60
2023-10-07T13:07:06.289Z,48.00
2023-10-07T13:09:33.458Z,46.90
2023-10-07T13:12:01.523Z,48.00
2023-10-07T13:14:28.777Z,48.20
2023-10-07T13:16:58.468Z,46.90
2023-10-07T13:19:27.759Z,46.30
2023-10-07T13:21:56.574Z,46.80
2023-10-07T13:24:23.924Z,47.60
2023-10-07T13:26:51.491Z,46.40
2023-10-07T13:29:18.796Z,47.30
2023-10-07T13:31:47.774Z,46.30
2023-10-07T13:34:16.533Z,45.30
2023-10-07T13:36:44.711Z,45.10
2023-10-07T13:39:13.632Z,44.40
2023-10-07T13:41:41.590Z,43.40
2023-10-07T13:44:11.670Z,44.40
2023-10-07T13:46:39.426Z,45.40
2023-10-07T13:49:09.828Z,43.60
2023-10-07T13:51:41.672Z,43.80
2023-10-07T13:54:31.370Z,43.40
2023-10-07T13:57:00.240Z,42.70
2023-10-07T13:59:27.611Z,43.50
2023-10-07T14:01:57.255Z,44.70
2023-10-07T14:04:27.154Z,43.00
2023-10-07T14:06:56.061Z,43.90
2023-10-07T14:09:26.008Z,42.80
2023-10-07T14:11:55.992Z,43.40
2023-10-07T14:14:23.871Z,42.10
2023-10-07T14:16:56.858Z,40.30
2023-10-07T14:19:24.261Z,39.70
2023-10-07T14:21:51.463Z,41.20
2023-10-07T14:24:20.794Z,42.10
2023-10-07T14:26:49.726Z,41.00
2023-10-07T14:29:17.075Z,39.50
2023-10-07T14:31:45.614Z,39.70
2023-10-07T14:34:13.696Z,40.60
2023-10-07T14:36:42.862Z,40.80
2023-10-07T14:39:14.242Z,40.00
2023-10-07T14:41:44.217Z,39.30
2023-10-07T14:44:11.744Z,38.70
2023-10-07T14:46:43.078Z,40.30
2023-10-07T14:49:11.611Z,40.60
2023-10-07T14:51:39.302Z,39.30
2023-10-07T14:54:06.574Z,39.00
2023-10-07T14:56:33.975Z,38.70
2023-10-07T14:59:01.374Z,38.90
2023-10-07T15:01:29.390Z,38.50
2023-10-07T15:03:57.112Z,38.90
2023-10-07T15:06:24.474Z,39.70
2023-10-07T15:08:52.381Z,38.90
2023-10-07T15:11:21.739Z,40.20
2023-10-07T15:13:50.959Z,39.70
2023-10-07T15:16:18.951Z,41.20
2023-10-07T15:18:50.400Z,41.60
2023-10-07T15:21:18.812Z,40.90
2023-10-07T15:23:46.804Z,41.00
2023-10-07T15:26:18.439Z,41.10
2023-10-07T15:28:47.273Z,41.90
2023-10-07T15:31:23.436Z,40.60
2023-10-07T15:33:54.669Z,40.30
2023-10-07T15:36:23.090Z,40.20
2023-10-07T15:38:51.319Z,39.40
2023-10-07T15:41:20.808Z,39.80
2023-10-07T15:43:48.274Z,40.60
2023-10-07T15:46:18.114Z,41.20
2023-10-07T15:48:46.065Z,40.70
2023-10-07T15:51:15.489Z,40.20
2023-10-07T15:53:44.042Z,40.40
2023-10-07T15:56:13.850Z,40.10
2023-10-07T15:58:43.122Z,40.50
2023-10-07T16:01:12.470Z,40.30
2023-10-07T16:03:41.496Z,40.80
2023-10-07T16:06:09.370Z,40.80
2023-10-07T16:08:38.512Z,40.80
2023-10-07T16:11:08.137Z,41.00
2023-10-07T16:13:35.666Z,40.30
2023-10-07T16:16:06.834Z,39.80
2023-10-07T16:18:36.557Z,39.50
2023-10-07T16:21:11.101Z,38.90
2023-10-07T16:23:39.034Z,38.70
2023-10-07T16:26:07.976Z,39.20
2023-10-07T16:28:36.228Z,39.90
2023-10-07T16:31:03.422Z,39.70
2023-10-07T16:33:33.160Z,39.90
2023-10-07T16:36:02.731Z,40.40
2023-10-07T16:38:30.225Z,40.50
2023-10-07T16:40:58.484Z,40.70
2023-10-07T16:43:25.791Z,41.50
2023-10-07T16:45:53.748Z,41.30
2023-10-07T16:48:21.012Z,42.60
2023-10-07T16:50:51.425Z,43.30
2023-10-07T16:53:18.628Z,43.30
2023-10-07T16:55:54.001Z,43.30
2023-10-07T16:58:21.600Z,43.50
2023-10-07T17:00:48.723Z,43.50
2023-10-07T17:03:16.151Z,43.60
2023-10-07T17:05:43.846Z,43.70
2023-10-07T17:08:11.653Z,44.00
2023-10-07T17:10:40.779Z,43.80
2023-10-07T17:13:10.980Z,44.50
2023-10-07T17:15:39.636Z,46.20
2023-10-07T17:18:07.746Z,46.50
2023-10-07T17:20:36.368Z,46.80
2023-10-07T17:23:04.707Z,47.40
2023-10-07T17:25:32.969Z,47.80
2023-10-07T17:28:00.936Z,47.40
2023-10-07T17:30:31.194Z,47.90
2023-10-07T17:33:00.163Z,47.50
2023-10-07T17:35:29.391Z,48.20
2023-10-07T17:37:57.615Z,48.10
2023-10-07T17:40:25.147Z,48.10
2023-10-07T17:42:52.958Z,48.00
2023-10-07T17:45:20.139Z,48.20
2023-10-07T17:47:47.413Z,48.40
2023-10-07T17:50:16.319Z,48.80
2023-10-07T17:52:43.998Z,49.20
2023-10-07T17:55:12.361Z,49.50
2023-10-07T17:57:41.956Z,49.40
2023-10-07T18:00:11.334Z,49.20
2023-10-07T18:02:39.758Z,49.10
2023-10-07T18:05:07.789Z,49.10
2023-10-07T18:07:34.907Z,48.80
2023-10-07T18:10:02.466Z,49.20
2023-10-07T18:12:30.536Z,49.40
2023-10-07T18:14:57.762Z,49.70
2023-10-07T18:17:24.948Z,50.20
2023-10-07T18:19:52.153Z,50.60
2023-10-07T18:22:19.242Z,51.00
2023-10-07T18:24:47.318Z,51.60
2023-10-07T18:27:14.450Z,52.00
2023-10-07T18:29:41.844Z,52.40
2023-10-07T18:32:09.103Z,53.10
2023-10-07T18:34:36.361Z,53.60
2023-10-07T18:37:03.636Z,53.40
2023-10-07T18:39:30.903Z,54.30
2023-10-07T18:41:58.062Z,54.40
2023-10-07T18:44:25.394Z,54.70
2023-10-07T18:46:52.725Z,55.00
2023-10-07T18:49:20.051Z,55.20
2023-10-07T18:51:47.173Z,55.30
2023-10-07T18:54:15.094Z,55.30
2023-10-07T18:56:42.603Z,55.20
2023-10-07T18:59:09.975Z,55.90
2023-10-07T19:01:37.357Z,55.20
2023-10-07T19:04:05.067Z,55.40
2023-10-07T19:06:32.190Z,55.40
2023-10-07T19:08:59.970Z,55.50
2023-10-07T19:11:27.217Z,55.80
2023-10-07T19:13:54.496Z,55.70
2023-10-07T19:16:21.836Z,55.50
2023-10-07T19:18:49.185Z,55.30
2023-10-07T19:21:16.916Z,55.40
2023-10-07T19:23:44.225Z,55.60
2023-10-07T19:26:16.547Z,55.90
2023-10-07T19:28:44.871Z,56.00
2023-10-07T19:31:14.272Z,56.20
2023-10-07T19:33:42.164Z,56.60
2023-10-07T19:36:09.911Z,56.80
2023-10-07T19:38:37.269Z,56.90
2023-10-07T19:41:04.734Z,57.20
2023-10-07T19:43:31.933Z,57.40
2023-10-07T19:45:59.300Z,57.50
2023-10-07T19:48:26.637Z,57.50
2023-10-07T19:50:56.143Z,57.70
2023-10-07T19:53:24.414Z,58.00
2023-10-07T19:55:51.730Z,58.00
2023-10-07T19:58:18.872Z,58.10
2023-10-07T20:00:46.125Z,58.20
2023-10-07T20:03:13.390Z,58.40
2023-10-07T20:05:40.893Z,58.80
2023-10-07T20:08:13.214Z,58.90
2023-10-07T20:10:46.435Z,58.90
2023-10-07T20:13:13.681Z,59.00
2023-10-07T20:15:44.046Z,59.80
2023-10-07T20:18:11.468Z,59.20
2023-10-07T20:20:38.695Z,59.20
2023-10-07T20:23:06.787Z,59.10
2023-10-07T20:25:34.080Z,59.10
2023-10-07T20:28:01.245Z,59.10
2023-10-07T20:30:28.382Z,59.00
2023-10-07T20:32:57.398Z,59.20
2023-10-07T20:35:25.600Z,59.00
2023-10-07T20:37:53.013Z,59.20
2023-10-07T20:40:21.190Z,59.30
2023-10-07T20:42:49.102Z,59.20
2023-10-07T20:45:17.390Z,59.10
2023-10-07T20:47:45.048Z,59.00
2023-10-07T20:50:12.486Z,59.00
2023-10-07T20:52:39.869Z,59.00
2023-10-07T20:55:07.328Z,59.10
2023-10-07T20:57:34.737Z,59.20
2023-10-07T21:00:01.937Z,59.20
2023-10-07T21:02:31.005Z,59.40
2023-10-07T21:04:58.249Z,59.40
2023-10-07T21:07:26.604Z,59.50
2023-10-07T21:09:53.910Z,59.50
2023-10-07T21:12:21.089Z,60.30
2023-10-07T21:14:48.192Z,59.50
2023-10-07T21:17:18.016Z,59.70
2023-10-07T21:19:45.213Z,59.70
2023-10-07T21:22:12.638Z,59.50
2023-10-07T21:24:39.813Z,59.70
2023-10-07T21:27:07.587Z,59.70
2023-10-07T21:29:34.777Z,59.80
2023-10-07T21:32:03.991Z,59.80
2023-10-07T21:34:31.182Z,59.80
2023-10-07T21:36:58.527Z,60.00
2023-10-07T21:39:25.893Z,59.90
2023-10-07T21:41:53.404Z,60.00
2023-10-07T21:44:20.546Z,59.90
2023-10-07T21:46:47.805Z,59.80
2023-10-07T21:49:16.103Z,59.80
2023-10-07T21:51:43.330Z,59.80
2023-10-07T21:54:10.628Z,59.60
2023-10-07T21:56:37.914Z,59.90
2023-10-07T21:59:05.642Z,59.90
2023-10-07T22:01:33.026Z,60.10
2023-10-07T22:04:00.301Z,60.00
2023-10-07T22:06:27.601Z,60.10
2023-10-07T22:08:54.864Z,60.10
2023-10-07T22:11:22.189Z,60.30
2023-10-07T22:13:49.421Z,60.60
2023-10-07T22:16:16.809Z,60.70
2023-10-07T22:18:44.003Z,60.90
2023-10-07T22:21:12.513Z,61.10
2023-10-07T22:23:40.445Z,61.10
2023-10-07T22:26:13.019Z,61.20
2023-10-07T22:28:40.642Z,61.10
2023-10-07T22:31:08.222Z,61.20
2023-10-07T22:33:36.599Z,61.10
2023-10-07T22:36:09.703Z,61.20
2023-10-07T22:38:41.102Z,61.00
2023-10-07T22:41:19.584Z,61.10
2023-10-07T22:43:47.482Z,61.00
2023-10-07T22:46:16.076Z,61.20
2023-10-07T22:48:47.586Z,61.30
2023-10-07T22:51:16.471Z,61.50
2023-10-07T22:53:45.732Z,61.40
2023-10-07T22:56:14.696Z,62.50
2023-10-07T22:58:44.321Z,61.70
2023-10-07T23:01:13.643Z,61.70
2023-10-07T23:03:49.253Z,61.60
2023-10-07T23:06:19.565Z,61.70
2023-10-07T23:08:51.045Z,61.80
2023-10-07T23:11:24.514Z,62.10
2023-10-07T23:13:55.010Z,62.30
2023-10-07T23:16:28.511Z,62.20
2023-10-07T23:18:59.903Z,62.40
2023-10-07T23:21:29.452Z,62.80
2023-10-07T23:23:57.651Z,62.70
2023-10-07T23:26:24.945Z,63.90
2023-10-07T23:28:59.585Z,64.10
2023-10-07T23:31:40.141Z,64.10
2023-10-07T23:34:27.291Z,63.60
2023-10-07T23:36:54.899Z,63.70
2023-10-07T23:39:24.128Z,64.50
2023-10-07T23:41:51.551Z,64.60
2023-10-07T23:44:18.871Z,65.20
2023-10-07T23:46:46.292Z,65.90
2023-10-07T23:49:14.905Z,65.70
2023-10-07T23:51:46.543Z,66.10
2023-10-07T23:54:15.230Z,65.70
2023-10-07T23:56:50.636Z,65.30
2023-10-07T23:59:25.152Z,65.70
